sensor_id;sensor_type;location;lat;lon;timestamp;temperature;humidity
45008;DHT22;30743;52.008;5.644;2022-10-16T00:00:36;16.70;99.90
45008;DHT22;30743;52.008;5.644;2022-10-16T00:03:03;16.60;99.90
45008;DHT22;30743;52.008;5.644;2022-10-16T00:05:29;16.80;99.90
45008;DHT22;30743;52.008;5.644;2022-10-16T00:10:21;16.70;99.90
45008;DHT22;30743;52.008;5.644;2022-10-16T00:12:46;16.80;99.90
45008;DHT22;30743;52.008;5.644;2022-10-16T00:15:12;16.70;99.90
45008;DHT22;30743;52.008;5.644;2022-10-16T00:17:38;16.80;99.90
45008;DHT22;30743;52.008;5.644;2022-10-16T00:20:04;16.80;99.90
45008;DHT22;30743;52.008;5.644;2022-10-16T00:22:29;17.00;99.90
45008;DHT22;30743;52.008;5.644;2022-10-16T00:24:55;16.90;99.90
45008;DHT22;30743;52.008;5.644;2022-10-16T00:27:20;16.90;99.90
45008;DHT22;30743;52.008;5.644;2022-10-16T00:29:50;16.60;99.90
45008;DHT22;30743;52.008;5.644;2022-10-16T00:32:16;16.60;99.90
45008;DHT22;30743;52.008;5.644;2022-10-16T00:34:41;16.60;99.90
45008;DHT22;30743;52.008;5.644;2022-10-16T00:37:07;16.60;99.90
45008;DHT22;30743;52.008;5.644;2022-10-16T00:39:32;16.40;99.90
45008;DHT22;30743;52.008;5.644;2022-10-16T00:41:58;16.40;99.90
45008;DHT22;30743;52.008;5.644;2022-10-16T00:47:10;16.20;99.90
45008;DHT22;30743;52.008;5.644;2022-10-16T00:49:36;16.10;99.90
45008;DHT22;30743;52.008;5.644;2022-10-16T00:52:01;16.20;99.90
45008;DHT22;30743;52.008;5.644;2022-10-16T00:54:30;16.20;99.90
45008;DHT22;30743;52.008;5.644;2022-10-16T00:56:59;16.30;99.90
45008;DHT22;30743;52.008;5.644;2022-10-16T00:59:32;16.40;99.90
45008;DHT22;30743;52.008;5.644;2022-10-16T01:01:58;16.30;99.90
45008;DHT22;30743;52.008;5.644;2022-10-16T01:04:25;16.30;99.90
45008;DHT22;30743;52.008;5.644;2022-10-16T01:09:21;16.50;99.90
45008;DHT22;30743;52.008;5.644;2022-10-16T01:12:04;16.40;99.90
45008;DHT22;30743;52.008;5.644;2022-10-16T01:14:43;16.50;99.90
45008;DHT22;30743;52.008;5.644;2022-10-16T01:22:48;16.70;99.90
45008;DHT22;30743;52.008;5.644;2022-10-16T01:25:29;16.80;99.90
45008;DHT22;30743;52.008;5.644;2022-10-16T01:27:57;16.80;99.90
45008;DHT22;30743;52.008;5.644;2022-10-16T01:30:26;16.80;99.90
45008;DHT22;30743;52.008;5.644;2022-10-16T01:33:01;16.80;99.90
45008;DHT22;30743;52.008;5.644;2022-10-16T01:35:35;16.90;99.90
45008;DHT22;30743;52.008;5.644;2022-10-16T01:38:17;17.00;99.90
45008;DHT22;30743;52.008;5.644;2022-10-16T01:40:49;17.10;99.90
45008;DHT22;30743;52.008;5.644;2022-10-16T01:43:19;17.30;99.90
45008;DHT22;30743;52.008;5.644;2022-10-16T01:45:46;17.20;99.90
45008;DHT22;30743;52.008;5.644;2022-10-16T01:48:14;17.10;99.90
45008;DHT22;30743;52.008;5.644;2022-10-16T01:50:44;17.20;99.90
45008;DHT22;30743;52.008;5.644;2022-10-16T01:53:12;17.10;99.90
45008;DHT22;30743;52.008;5.644;2022-10-16T01:55:41;16.90;99.90
45008;DHT22;30743;52.008;5.644;2022-10-16T01:58:12;17.10;99.90
45008;DHT22;30743;52.008;5.644;2022-10-16T02:00:41;17.10;99.90
45008;DHT22;30743;52.008;5.644;2022-10-16T02:03:07;17.10;99.90
45008;DHT22;30743;52.008;5.644;2022-10-16T02:05:47;17.10;99.90
45008;DHT22;30743;52.008;5.644;2022-10-16T02:08:14;17.20;99.90
45008;DHT22;30743;52.008;5.644;2022-10-16T02:10:40;17.00;99.90
45008;DHT22;30743;52.008;5.644;2022-10-16T02:13:10;16.80;99.90
45008;DHT22;30743;52.008;5.644;2022-10-16T02:15:36;16.70;99.90
45008;DHT22;30743;52.008;5.644;2022-10-16T02:18:03;16.90;99.90
45008;DHT22;30743;52.008;5.644;2022-10-16T02:20:34;16.90;99.90
45008;DHT22;30743;52.008;5.644;2022-10-16T02:23:03;17.10;99.90
45008;DHT22;30743;52.008;5.644;2022-10-16T02:25:37;16.70;99.90
45008;DHT22;30743;52.008;5.644;2022-10-16T02:28:09;16.60;99.90
45008;DHT22;30743;52.008;5.644;2022-10-16T02:30:48;16.80;99.90
45008;DHT22;30743;52.008;5.644;2022-10-16T02:33:16;16.80;99.90
45008;DHT22;30743;52.008;5.644;2022-10-16T02:35:44;16.80;99.90
45008;DHT22;30743;52.008;5.644;2022-10-16T02:38:12;16.80;99.90
45008;DHT22;30743;52.008;5.644;2022-10-16T02:40:39;16.80;99.90
45008;DHT22;30743;52.008;5.644;2022-10-16T02:43:05;17.00;99.90
45008;DHT22;30743;52.008;5.644;2022-10-16T02:45:31;16.90;99.90
45008;DHT22;30743;52.008;5.644;2022-10-16T02:47:57;16.90;99.90
45008;DHT22;30743;52.008;5.644;2022-10-16T02:50:23;16.90;99.90
45008;DHT22;30743;52.008;5.644;2022-10-16T02:52:50;16.90;99.90
45008;DHT22;30743;52.008;5.644;2022-10-16T02:55:16;17.00;99.90
45008;DHT22;30743;52.008;5.644;2022-10-16T02:57:41;17.10;99.90
45008;DHT22;30743;52.008;5.644;2022-10-16T03:00:14;17.20;99.90
45008;DHT22;30743;52.008;5.644;2022-10-16T03:02:40;17.20;99.90
45008;DHT22;30743;52.008;5.644;2022-10-16T03:05:06;17.10;99.90
45008;DHT22;30743;52.008;5.644;2022-10-16T03:07:32;16.90;99.90
45008;DHT22;30743;52.008;5.644;2022-10-16T03:09:57;16.80;99.90
45008;DHT22;30743;52.008;5.644;2022-10-16T03:12:26;16.70;99.90
45008;DHT22;30743;52.008;5.644;2022-10-16T03:14:51;16.70;99.90
45008;DHT22;30743;52.008;5.644;2022-10-16T03:17:17;16.70;99.90
45008;DHT22;30743;52.008;5.644;2022-10-16T03:19:42;16.60;99.90
45008;DHT22;30743;52.008;5.644;2022-10-16T03:22:08;16.70;99.90
45008;DHT22;30743;52.008;5.644;2022-10-16T03:24:33;16.60;99.90
45008;DHT22;30743;52.008;5.644;2022-10-16T03:26:59;16.50;99.90
45008;DHT22;30743;52.008;5.644;2022-10-16T03:29:25;16.80;99.90
45008;DHT22;30743;52.008;5.644;2022-10-16T03:31:51;16.90;99.90
45008;DHT22;30743;52.008;5.644;2022-10-16T03:34:16;16.90;99.90
45008;DHT22;30743;52.008;5.644;2022-10-16T03:36:42;16.90;99.90
45008;DHT22;30743;52.008;5.644;2022-10-16T03:39:07;17.00;99.90
45008;DHT22;30743;52.008;5.644;2022-10-16T03:41:33;17.00;99.90
45008;DHT22;30743;52.008;5.644;2022-10-16T03:43:58;16.90;99.90
45008;DHT22;30743;52.008;5.644;2022-10-16T03:48:50;16.90;99.90
45008;DHT22;30743;52.008;5.644;2022-10-16T03:51:15;16.80;99.90
45008;DHT22;30743;52.008;5.644;2022-10-16T03:53:41;18.10;99.90
45008;DHT22;30743;52.008;5.644;2022-10-16T03:56:06;16.80;99.90
45008;DHT22;30743;52.008;5.644;2022-10-16T03:58:32;16.90;99.90
45008;DHT22;30743;52.008;5.644;2022-10-16T04:00:58;18.70;99.90
45008;DHT22;30743;52.008;5.644;2022-10-16T04:03:23;18.70;99.90
45008;DHT22;30743;52.008;5.644;2022-10-16T04:05:49;16.80;99.90
45008;DHT22;30743;52.008;5.644;2022-10-16T04:08:15;16.80;99.90
45008;DHT22;30743;52.008;5.644;2022-10-16T04:10:42;16.70;99.90
45008;DHT22;30743;52.008;5.644;2022-10-16T04:13:08;17.10;99.90
45008;DHT22;30743;52.008;5.644;2022-10-16T04:15:34;16.80;99.90
45008;DHT22;30743;52.008;5.644;2022-10-16T04:18:00;16.80;99.90
45008;DHT22;30743;52.008;5.644;2022-10-16T04:20:25;16.70;99.90
45008;DHT22;30743;52.008;5.644;2022-10-16T04:22:51;16.70;99.90
45008;DHT22;30743;52.008;5.644;2022-10-16T04:25:16;16.60;99.90
45008;DHT22;30743;52.008;5.644;2022-10-16T04:27:42;16.70;99.90
45008;DHT22;30743;52.008;5.644;2022-10-16T04:30:07;16.50;99.90
45008;DHT22;30743;52.008;5.644;2022-10-16T04:32:33;16.50;99.90
45008;DHT22;30743;52.008;5.644;2022-10-16T04:34:59;16.40;99.90
45008;DHT22;30743;52.008;5.644;2022-10-16T04:37:25;16.60;99.90
45008;DHT22;30743;52.008;5.644;2022-10-16T04:39:51;16.50;99.90
45008;DHT22;30743;52.008;5.644;2022-10-16T04:42:17;16.40;99.90
45008;DHT22;30743;52.008;5.644;2022-10-16T04:44:42;16.20;99.90
45008;DHT22;30743;52.008;5.644;2022-10-16T04:49:34;16.10;99.90
45008;DHT22;30743;52.008;5.644;2022-10-16T04:51:59;16.20;99.90
45008;DHT22;30743;52.008;5.644;2022-10-16T04:54:25;16.20;99.90
45008;DHT22;30743;52.008;5.644;2022-10-16T04:56:50;16.00;99.90
45008;DHT22;30743;52.008;5.644;2022-10-16T04:59:18;16.20;99.90
45008;DHT22;30743;52.008;5.644;2022-10-16T05:01:45;16.20;99.90
45008;DHT22;30743;52.008;5.644;2022-10-16T05:04:11;16.10;99.90
45008;DHT22;30743;52.008;5.644;2022-10-16T05:06:37;16.20;99.90
45008;DHT22;30743;52.008;5.644;2022-10-16T05:09:04;16.20;99.90
45008;DHT22;30743;52.008;5.644;2022-10-16T05:11:30;16.20;99.90
45008;DHT22;30743;52.008;5.644;2022-10-16T05:13:56;16.20;99.90
45008;DHT22;30743;52.008;5.644;2022-10-16T05:16:21;16.20;99.90
45008;DHT22;30743;52.008;5.644;2022-10-16T05:18:47;16.40;99.90
45008;DHT22;30743;52.008;5.644;2022-10-16T05:21:12;16.40;99.90
45008;DHT22;30743;52.008;5.644;2022-10-16T05:23:38;16.60;99.90
45008;DHT22;30743;52.008;5.644;2022-10-16T05:26:03;16.60;99.90
45008;DHT22;30743;52.008;5.644;2022-10-16T05:28:29;16.60;99.90
45008;DHT22;30743;52.008;5.644;2022-10-16T05:30:55;16.40;99.90
45008;DHT22;30743;52.008;5.644;2022-10-16T05:33:24;16.30;99.90
45008;DHT22;30743;52.008;5.644;2022-10-16T05:35:50;16.30;99.90
45008;DHT22;30743;52.008;5.644;2022-10-16T05:38:17;16.30;99.90
45008;DHT22;30743;52.008;5.644;2022-10-16T05:40:43;16.20;99.90
45008;DHT22;30743;52.008;5.644;2022-10-16T05:43:15;16.10;99.90
45008;DHT22;30743;52.008;5.644;2022-10-16T05:45:40;16.20;99.90
45008;DHT22;30743;52.008;5.644;2022-10-16T05:48:06;16.20;99.90
45008;DHT22;30743;52.008;5.644;2022-10-16T05:50:32;16.20;99.90
45008;DHT22;30743;52.008;5.644;2022-10-16T05:52:57;16.20;99.90
45008;DHT22;30743;52.008;5.644;2022-10-16T05:57:48;16.10;99.90
45008;DHT22;30743;52.008;5.644;2022-10-16T06:02:40;16.10;99.90
45008;DHT22;30743;52.008;5.644;2022-10-16T06:05:06;16.00;99.90
45008;DHT22;30743;52.008;5.644;2022-10-16T06:07:34;16.00;99.90
45008;DHT22;30743;52.008;5.644;2022-10-16T06:10:00;16.10;99.90
45008;DHT22;30743;52.008;5.644;2022-10-16T06:14:52;16.20;99.90
45008;DHT22;30743;52.008;5.644;2022-10-16T06:17:18;16.20;99.90
45008;DHT22;30743;52.008;5.644;2022-10-16T06:19:43;16.30;99.90
45008;DHT22;30743;52.008;5.644;2022-10-16T06:22:09;16.30;99.90
45008;DHT22;30743;52.008;5.644;2022-10-16T06:24:35;16.40;99.90
45008;DHT22;30743;52.008;5.644;2022-10-16T06:27:00;16.40;99.90
45008;DHT22;30743;52.008;5.644;2022-10-16T06:29:26;16.40;99.90
45008;DHT22;30743;52.008;5.644;2022-10-16T06:31:51;16.40;99.90
45008;DHT22;30743;52.008;5.644;2022-10-16T06:34:18;16.40;99.90
45008;DHT22;30743;52.008;5.644;2022-10-16T06:36:43;16.50;99.90
45008;DHT22;30743;52.008;5.644;2022-10-16T06:39:09;16.60;99.90
45008;DHT22;30743;52.008;5.644;2022-10-16T06:41:34;16.60;99.90
45008;DHT22;30743;52.008;5.644;2022-10-16T06:44:00;17.90;99.90
45008;DHT22;30743;52.008;5.644;2022-10-16T06:46:26;16.80;99.90
45008;DHT22;30743;52.008;5.644;2022-10-16T06:48:53;17.00;99.90
45008;DHT22;30743;52.008;5.644;2022-10-16T06:51:20;16.70;99.90
45008;DHT22;30743;52.008;5.644;2022-10-16T06:53:51;16.70;99.90
45008;DHT22;30743;52.008;5.644;2022-10-16T06:56:22;16.60;99.90
45008;DHT22;30743;52.008;5.644;2022-10-16T06:58:49;16.60;99.90
45008;DHT22;30743;52.008;5.644;2022-10-16T07:01:15;16.60;99.90
45008;DHT22;30743;52.008;5.644;2022-10-16T07:03:42;16.70;99.90
45008;DHT22;30743;52.008;5.644;2022-10-16T07:06:10;16.60;99.90
45008;DHT22;30743;52.008;5.644;2022-10-16T07:08:38;16.60;99.90
45008;DHT22;30743;52.008;5.644;2022-10-16T07:11:07;16.60;99.90
45008;DHT22;30743;52.008;5.644;2022-10-16T07:13:34;16.60;99.90
45008;DHT22;30743;52.008;5.644;2022-10-16T07:16:14;16.80;99.90
45008;DHT22;30743;52.008;5.644;2022-10-16T07:18:40;16.80;99.90
45008;DHT22;30743;52.008;5.644;2022-10-16T07:21:09;17.00;99.90
45008;DHT22;30743;52.008;5.644;2022-10-16T07:23:35;17.20;99.90
45008;DHT22;30743;52.008;5.644;2022-10-16T07:26:01;17.40;99.90
45008;DHT22;30743;52.008;5.644;2022-10-16T07:28:27;17.50;99.90
45008;DHT22;30743;52.008;5.644;2022-10-16T07:30:52;17.60;99.90
45008;DHT22;30743;52.008;5.644;2022-10-16T07:33:18;17.20;99.90
45008;DHT22;30743;52.008;5.644;2022-10-16T07:35:51;17.30;99.90
45008;DHT22;30743;52.008;5.644;2022-10-16T07:38:18;17.30;99.90
45008;DHT22;30743;52.008;5.644;2022-10-16T07:40:44;17.50;99.90
45008;DHT22;30743;52.008;5.644;2022-10-16T07:43:10;17.80;99.90
45008;DHT22;30743;52.008;5.644;2022-10-16T07:45:35;17.90;99.90
45008;DHT22;30743;52.008;5.644;2022-10-16T07:48:01;18.10;99.90
45008;DHT22;30743;52.008;5.644;2022-10-16T07:50:26;18.20;99.90
45008;DHT22;30743;52.008;5.644;2022-10-16T07:52:52;17.90;99.90
45008;DHT22;30743;52.008;5.644;2022-10-16T07:55:18;18.10;99.90
45008;DHT22;30743;52.008;5.644;2022-10-16T07:57:43;18.00;99.90
45008;DHT22;30743;52.008;5.644;2022-10-16T08:00:09;17.80;99.90
45008;DHT22;30743;52.008;5.644;2022-10-16T08:02:39;17.60;99.90
45008;DHT22;30743;52.008;5.644;2022-10-16T08:05:06;17.50;99.90
45008;DHT22;30743;52.008;5.644;2022-10-16T08:07:31;17.60;99.90
45008;DHT22;30743;52.008;5.644;2022-10-16T08:09:57;17.60;99.90
45008;DHT22;30743;52.008;5.644;2022-10-16T08:12:24;17.90;99.90
45008;DHT22;30743;52.008;5.644;2022-10-16T08:14:50;18.20;99.90
45008;DHT22;30743;52.008;5.644;2022-10-16T08:17:15;18.20;99.90
45008;DHT22;30743;52.008;5.644;2022-10-16T08:19:45;18.60;99.90
45008;DHT22;30743;52.008;5.644;2022-10-16T08:22:10;18.80;99.90
45008;DHT22;30743;52.008;5.644;2022-10-16T08:24:35;19.10;99.90
45008;DHT22;30743;52.008;5.644;2022-10-16T08:27:02;19.30;99.90
45008;DHT22;30743;52.008;5.644;2022-10-16T08:29:28;19.30;99.90
45008;DHT22;30743;52.008;5.644;2022-10-16T08:31:53;19.50;99.90
45008;DHT22;30743;52.008;5.644;2022-10-16T08:34:19;19.40;99.90
45008;DHT22;30743;52.008;5.644;2022-10-16T08:36:44;19.30;99.90
45008;DHT22;30743;52.008;5.644;2022-10-16T08:39:10;19.10;99.90
45008;DHT22;30743;52.008;5.644;2022-10-16T08:44:35;19.00;99.90
45008;DHT22;30743;52.008;5.644;2022-10-16T08:47:46;19.20;99.90
45008;DHT22;30743;52.008;5.644;2022-10-16T08:50:13;19.50;99.90
45008;DHT22;30743;52.008;5.644;2022-10-16T08:52:42;20.20;99.90
45008;DHT22;30743;52.008;5.644;2022-10-16T08:55:16;21.30;99.90
45008;DHT22;30743;52.008;5.644;2022-10-16T08:57:44;22.00;99.90
45008;DHT22;30743;52.008;5.644;2022-10-16T09:00:13;23.80;99.90
45008;DHT22;30743;52.008;5.644;2022-10-16T09:02:44;24.10;99.90
45008;DHT22;30743;52.008;5.644;2022-10-16T09:05:23;24.90;99.90
45008;DHT22;30743;52.008;5.644;2022-10-16T09:08:49;25.60;99.90
45008;DHT22;30743;52.008;5.644;2022-10-16T09:11:16;26.70;99.90
45008;DHT22;30743;52.008;5.644;2022-10-16T09:14:00;27.30;99.90
45008;DHT22;30743;52.008;5.644;2022-10-16T09:16:38;27.60;99.90
45008;DHT22;30743;52.008;5.644;2022-10-16T09:21:45;28.20;99.90
45008;DHT22;30743;52.008;5.644;2022-10-16T09:24:20;28.60;99.90
45008;DHT22;30743;52.008;5.644;2022-10-16T09:26:47;29.30;98.60
45008;DHT22;30743;52.008;5.644;2022-10-16T09:29:14;29.60;97.80
45008;DHT22;30743;52.008;5.644;2022-10-16T09:31:42;30.00;97.50
45008;DHT22;30743;52.008;5.644;2022-10-16T09:36:48;30.20;95.70
45008;DHT22;30743;52.008;5.644;2022-10-16T09:39:13;30.60;95.80
45008;DHT22;30743;52.008;5.644;2022-10-16T09:41:42;30.80;95.50
45008;DHT22;30743;52.008;5.644;2022-10-16T09:44:30;31.50;95.00
45008;DHT22;30743;52.008;5.644;2022-10-16T09:47:15;31.90;94.20
45008;DHT22;30743;52.008;5.644;2022-10-16T09:49:53;31.60;92.70
45008;DHT22;30743;52.008;5.644;2022-10-16T09:52:19;30.90;93.70
45008;DHT22;30743;52.008;5.644;2022-10-16T09:54:51;31.30;92.70
45008;DHT22;30743;52.008;5.644;2022-10-16T09:57:17;31.90;93.50
45008;DHT22;30743;52.008;5.644;2022-10-16T09:59:54;32.50;92.00
45008;DHT22;30743;52.008;5.644;2022-10-16T10:02:28;31.80;91.00
45008;DHT22;30743;52.008;5.644;2022-10-16T10:04:54;32.10;91.40
45008;DHT22;30743;52.008;5.644;2022-10-16T10:07:30;32.40;90.70
45008;DHT22;30743;52.008;5.644;2022-10-16T10:09:59;32.70;90.50
45008;DHT22;30743;52.008;5.644;2022-10-16T10:12:27;32.00;89.30
45008;DHT22;30743;52.008;5.644;2022-10-16T10:14:55;32.10;91.50
45008;DHT22;30743;52.008;5.644;2022-10-16T10:17:23;32.70;89.50
45008;DHT22;30743;52.008;5.644;2022-10-16T10:19:54;32.60;87.70
45008;DHT22;30743;52.008;5.644;2022-10-16T10:27:59;32.60;85.80
45008;DHT22;30743;52.008;5.644;2022-10-16T10:33:16;33.10;86.20
45008;DHT22;30743;52.008;5.644;2022-10-16T10:35:50;33.40;84.70
45008;DHT22;30743;52.008;5.644;2022-10-16T10:44:03;32.30;86.90
45008;DHT22;30743;52.008;5.644;2022-10-16T10:46:43;31.60;84.20
45008;DHT22;30743;52.008;5.644;2022-10-16T10:49:24;30.90;87.40
45008;DHT22;30743;52.008;5.644;2022-10-16T10:52:13;30.50;89.70
45008;DHT22;30743;52.008;5.644;2022-10-16T10:55:00;30.50;89.10
45008;DHT22;30743;52.008;5.644;2022-10-16T10:57:59;29.90;88.30
45008;DHT22;30743;52.008;5.644;2022-10-16T11:06:17;31.00;89.20
45008;DHT22;30743;52.008;5.644;2022-10-16T11:08:51;31.30;87.10
45008;DHT22;30743;52.008;5.644;2022-10-16T11:11:36;31.40;85.10
45008;DHT22;30743;52.008;5.644;2022-10-16T11:14:19;31.80;84.50
45008;DHT22;30743;52.008;5.644;2022-10-16T11:16:55;32.40;84.60
45008;DHT22;30743;52.008;5.644;2022-10-16T11:19:41;33.10;82.30
45008;DHT22;30743;52.008;5.644;2022-10-16T11:24:54;32.10;79.10
45008;DHT22;30743;52.008;5.644;2022-10-16T11:27:36;32.00;79.50
45008;DHT22;30743;52.008;5.644;2022-10-16T11:30:08;32.00;81.00
45008;DHT22;30743;52.008;5.644;2022-10-16T11:37:56;32.00;78.40
45008;DHT22;30743;52.008;5.644;2022-10-16T11:40:29;32.00;79.20
45008;DHT22;30743;52.008;5.644;2022-10-16T11:43:07;31.20;79.40
45008;DHT22;30743;52.008;5.644;2022-10-16T11:45:45;30.70;80.40
45008;DHT22;30743;52.008;5.644;2022-10-16T11:54:32;31.70;80.70
45008;DHT22;30743;52.008;5.644;2022-10-16T11:57:07;32.00;81.30
45008;DHT22;30743;52.008;5.644;2022-10-16T11:59:48;31.90;79.00
45008;DHT22;30743;52.008;5.644;2022-10-16T12:05:21;31.70;77.10
45008;DHT22;30743;52.008;5.644;2022-10-16T12:08:12;31.60;77.80
45008;DHT22;30743;52.008;5.644;2022-10-16T12:10:40;30.80;78.60
45008;DHT22;30743;52.008;5.644;2022-10-16T12:18:38;29.90;79.90
45008;DHT22;30743;52.008;5.644;2022-10-16T12:21:04;30.00;80.00
45008;DHT22;30743;52.008;5.644;2022-10-16T12:26:04;31.40;77.80
45008;DHT22;30743;52.008;5.644;2022-10-16T12:28:32;31.60;77.10
45008;DHT22;30743;52.008;5.644;2022-10-16T12:31:06;31.70;75.50
45008;DHT22;30743;52.008;5.644;2022-10-16T12:33:39;31.30;75.90
45008;DHT22;30743;52.008;5.644;2022-10-16T12:36:32;31.60;76.60
45008;DHT22;30743;52.008;5.644;2022-10-16T12:38:55;31.90;76.80
45008;DHT22;30743;52.008;5.644;2022-10-16T12:41:29;32.20;76.30
45008;DHT22;30743;52.008;5.644;2022-10-16T12:43:56;33.00;74.80
45008;DHT22;30743;52.008;5.644;2022-10-16T12:48:49;34.50;73.10
45008;DHT22;30743;52.008;5.644;2022-10-16T12:51:23;34.70;70.30
45008;DHT22;30743;52.008;5.644;2022-10-16T12:54:11;33.80;69.00
45008;DHT22;30743;52.008;5.644;2022-10-16T13:08:21;34.40;69.30
45008;DHT22;30743;52.008;5.644;2022-10-16T13:14:09;35.20;68.10
45008;DHT22;30743;52.008;5.644;2022-10-16T13:19:25;35.20;66.50
45008;DHT22;30743;52.008;5.644;2022-10-16T13:22:08;35.10;67.70
45008;DHT22;30743;52.008;5.644;2022-10-16T13:24:58;34.70;66.10
45008;DHT22;30743;52.008;5.644;2022-10-16T13:32:38;33.40;68.70
45008;DHT22;30743;52.008;5.644;2022-10-16T13:35:19;32.90;69.10
45008;DHT22;30743;52.008;5.644;2022-10-16T13:37:45;32.80;69.40
45008;DHT22;30743;52.008;5.644;2022-10-16T13:40:22;33.00;70.10
45008;DHT22;30743;52.008;5.644;2022-10-16T13:42:49;33.20;70.50
45008;DHT22;30743;52.008;5.644;2022-10-16T13:45:20;33.30;70.60
45008;DHT22;30743;52.008;5.644;2022-10-16T13:47:46;33.00;70.90
45008;DHT22;30743;52.008;5.644;2022-10-16T13:50:15;32.80;71.30
45008;DHT22;30743;52.008;5.644;2022-10-16T13:52:41;32.90;72.10
45008;DHT22;30743;52.008;5.644;2022-10-16T13:55:14;32.70;71.70
45008;DHT22;30743;52.008;5.644;2022-10-16T13:57:40;32.80;72.70
45008;DHT22;30743;52.008;5.644;2022-10-16T14:00:24;32.10;70.00
45008;DHT22;30743;52.008;5.644;2022-10-16T14:02:53;32.10;72.40
45008;DHT22;30743;52.008;5.644;2022-10-16T14:05:20;31.20;73.00
45008;DHT22;30743;52.008;5.644;2022-10-16T14:07:49;31.00;73.80
45008;DHT22;30743;52.008;5.644;2022-10-16T14:10:26;30.40;74.40
45008;DHT22;30743;52.008;5.644;2022-10-16T14:13:04;30.20;76.20
45008;DHT22;30743;52.008;5.644;2022-10-16T14:15:32;29.90;76.10
45008;DHT22;30743;52.008;5.644;2022-10-16T14:17:59;28.60;77.90
45008;DHT22;30743;52.008;5.644;2022-10-16T14:20:27;28.60;78.60
45008;DHT22;30743;52.008;5.644;2022-10-16T14:23:02;28.30;79.20
45008;DHT22;30743;52.008;5.644;2022-10-16T14:25:30;28.10;80.00
45008;DHT22;30743;52.008;5.644;2022-10-16T14:30:58;28.10;80.20
45008;DHT22;30743;52.008;5.644;2022-10-16T14:36:13;28.00;80.60
45008;DHT22;30743;52.008;5.644;2022-10-16T14:38:42;28.40;81.20
45008;DHT22;30743;52.008;5.644;2022-10-16T14:41:08;28.70;80.20
45008;DHT22;30743;52.008;5.644;2022-10-16T14:43:36;28.90;80.10
45008;DHT22;30743;52.008;5.644;2022-10-16T14:46:06;28.80;79.30
45008;DHT22;30743;52.008;5.644;2022-10-16T14:48:32;28.70;80.30
45008;DHT22;30743;52.008;5.644;2022-10-16T14:50:58;28.40;80.90
45008;DHT22;30743;52.008;5.644;2022-10-16T14:53:24;28.20;81.10
45008;DHT22;30743;52.008;5.644;2022-10-16T14:55:49;28.10;81.30
45008;DHT22;30743;52.008;5.644;2022-10-16T14:58:21;27.90;81.70
45008;DHT22;30743;52.008;5.644;2022-10-16T15:00:48;27.70;83.10
45008;DHT22;30743;52.008;5.644;2022-10-16T15:03:14;27.50;84.20
45008;DHT22;30743;52.008;5.644;2022-10-16T15:05:40;27.30;85.00
45008;DHT22;30743;52.008;5.644;2022-10-16T15:08:06;26.80;84.50
45008;DHT22;30743;52.008;5.644;2022-10-16T15:10:38;26.80;85.30
45008;DHT22;30743;52.008;5.644;2022-10-16T15:13:03;26.70;85.70
45008;DHT22;30743;52.008;5.644;2022-10-16T15:15:35;26.50;85.90
45008;DHT22;30743;52.008;5.644;2022-10-16T15:18:02;26.30;87.50
45008;DHT22;30743;52.008;5.644;2022-10-16T15:20:30;26.30;88.20
45008;DHT22;30743;52.008;5.644;2022-10-16T15:22:59;26.20;88.40
45008;DHT22;30743;52.008;5.644;2022-10-16T15:25:37;26.10;89.80
45008;DHT22;30743;52.008;5.644;2022-10-16T15:28:05;26.00;90.70
45008;DHT22;30743;52.008;5.644;2022-10-16T15:30:30;26.00;91.00
45008;DHT22;30743;52.008;5.644;2022-10-16T15:32:56;25.90;91.50
45008;DHT22;30743;52.008;5.644;2022-10-16T15:35:22;25.90;91.80
45008;DHT22;30743;52.008;5.644;2022-10-16T15:37:48;26.00;92.20
45008;DHT22;30743;52.008;5.644;2022-10-16T15:40:15;26.00;92.40
45008;DHT22;30743;52.008;5.644;2022-10-16T15:42:42;26.00;93.20
45008;DHT22;30743;52.008;5.644;2022-10-16T15:45:09;25.90;92.30
45008;DHT22;30743;52.008;5.644;2022-10-16T15:47:35;25.90;92.20
45008;DHT22;30743;52.008;5.644;2022-10-16T15:50:01;25.90;92.50
45008;DHT22;30743;52.008;5.644;2022-10-16T15:52:27;25.80;92.90
45008;DHT22;30743;52.008;5.644;2022-10-16T15:54:54;25.60;93.50
45008;DHT22;30743;52.008;5.644;2022-10-16T15:57:19;25.50;93.60
45008;DHT22;30743;52.008;5.644;2022-10-16T15:59:45;25.40;94.20
45008;DHT22;30743;52.008;5.644;2022-10-16T16:02:10;25.20;94.50
45008;DHT22;30743;52.008;5.644;2022-10-16T16:04:36;25.10;95.00
45008;DHT22;30743;52.008;5.644;2022-10-16T16:07:01;25.00;94.90
45008;DHT22;30743;52.008;5.644;2022-10-16T16:09:29;24.80;95.30
45008;DHT22;30743;52.008;5.644;2022-10-16T16:11:54;24.50;95.50
45008;DHT22;30743;52.008;5.644;2022-10-16T16:14:20;24.30;95.70
45008;DHT22;30743;52.008;5.644;2022-10-16T16:16:46;24.10;96.70
45008;DHT22;30743;52.008;5.644;2022-10-16T16:19:11;23.70;97.30
45008;DHT22;30743;52.008;5.644;2022-10-16T16:21:37;23.50;97.50
45008;DHT22;30743;52.008;5.644;2022-10-16T16:24:03;23.60;97.60
45008;DHT22;30743;52.008;5.644;2022-10-16T16:26:34;23.60;98.40
45008;DHT22;30743;52.008;5.644;2022-10-16T16:29:03;23.50;98.70
45008;DHT22;30743;52.008;5.644;2022-10-16T16:31:30;23.50;99.20
45008;DHT22;30743;52.008;5.644;2022-10-16T16:33:56;23.40;99.50
45008;DHT22;30743;52.008;5.644;2022-10-16T16:36:23;23.40;99.50
45008;DHT22;30743;52.008;5.644;2022-10-16T16:38:49;23.30;99.40
45008;DHT22;30743;52.008;5.644;2022-10-16T16:41:19;23.10;99.50
45008;DHT22;30743;52.008;5.644;2022-10-16T16:43:45;23.20;99.70
45008;DHT22;30743;52.008;5.644;2022-10-16T16:46:13;23.10;99.70
45008;DHT22;30743;52.008;5.644;2022-10-16T16:48:39;23.10;99.90
45008;DHT22;30743;52.008;5.644;2022-10-16T16:51:10;23.00;99.90
45008;DHT22;30743;52.008;5.644;2022-10-16T16:53:41;22.90;99.90
45008;DHT22;30743;52.008;5.644;2022-10-16T16:56:07;22.40;99.90
45008;DHT22;30743;52.008;5.644;2022-10-16T16:58:33;22.80;99.90
45008;DHT22;30743;52.008;5.644;2022-10-16T17:01:00;22.80;99.90
45008;DHT22;30743;52.008;5.644;2022-10-16T17:03:29;22.70;99.90
45008;DHT22;30743;52.008;5.644;2022-10-16T17:06:01;22.70;99.90
45008;DHT22;30743;52.008;5.644;2022-10-16T17:08:27;22.60;99.90
45008;DHT22;30743;52.008;5.644;2022-10-16T17:10:53;22.60;99.90
45008;DHT22;30743;52.008;5.644;2022-10-16T17:13:24;22.50;99.90
45008;DHT22;30743;52.008;5.644;2022-10-16T17:15:51;22.40;99.90
45008;DHT22;30743;52.008;5.644;2022-10-16T17:18:17;22.30;99.90
45008;DHT22;30743;52.008;5.644;2022-10-16T17:20:43;22.20;99.90
45008;DHT22;30743;52.008;5.644;2022-10-16T17:23:09;22.20;99.90
45008;DHT22;30743;52.008;5.644;2022-10-16T17:25:35;22.20;99.90
45008;DHT22;30743;52.008;5.644;2022-10-16T17:28:01;22.10;99.90
45008;DHT22;30743;52.008;5.644;2022-10-16T17:30:27;22.30;99.90